createdAt,value
2018-01-12T00:00:30.109Z,2.10
2018-01-12T00:01:32.635Z,2.10
2018-01-12T00:02:35.154Z,2.10
2018-01-12T00:03:37.648Z,2.10
2018-01-12T00:04:40.147Z,2.20
2018-01-12T00:05:42.681Z,2.20
2018-01-12T00:06:45.970Z,2.20
2018-01-12T00:07:49.266Z,2.20
2018-01-12T00:08:52.524Z,2.20
2018-01-12T00:09:55.023Z,2.20
2018-01-12T00:10:58.350Z,2.30
2018-01-12T00:12:00.880Z,2.30
2018-01-12T00:13:03.391Z,2.40
2018-01-12T00:14:05.902Z,2.40
2018-01-12T00:15:08.414Z,2.40
2018-01-12T00:16:11.673Z,2.40
2018-01-12T00:18:39.949Z,2.40
2018-01-12T00:19:42.681Z,2.50
2018-01-12T00:20:45.294Z,2.50
2018-01-12T00:21:47.929Z,2.60
2018-01-12T00:22:50.597Z,2.60
2018-01-12T00:23:53.221Z,2.60
2018-01-12T00:24:55.917Z,2.60
2018-01-12T00:25:59.293Z,2.70
2018-01-12T00:27:01.906Z,2.70
2018-01-12T00:28:04.537Z,2.70
2018-01-12T00:29:07.190Z,2.70
2018-01-12T00:30:09.799Z,2.70
2018-01-12T00:31:13.184Z,2.80
2018-01-12T00:32:17.795Z,2.80
2018-01-12T00:33:20.413Z,2.80
2018-01-12T00:34:23.027Z,2.80
2018-01-12T00:35:25.672Z,2.80
2018-01-12T00:36:28.318Z,2.90
2018-01-12T00:37:30.958Z,2.90
2018-01-12T00:38:33.594Z,3.00
2018-01-12T00:39:36.249Z,3.00
2018-01-12T00:40:39.029Z,3.00
2018-01-12T00:41:41.692Z,3.00
2018-01-12T00:42:44.357Z,3.00
2018-01-12T00:43:47.764Z,3.10
2018-01-12T00:44:50.393Z,3.10
2018-01-12T00:45:53.062Z,3.10
2018-01-12T00:46:55.704Z,3.10
2018-01-12T00:47:59.104Z,3.20
2018-01-12T00:49:01.815Z,3.20
2018-01-12T00:50:04.489Z,3.20
2018-01-12T00:51:07.952Z,3.20
2018-01-12T00:52:10.612Z,3.20
2018-01-12T00:53:13.263Z,3.30
2018-01-12T00:54:15.942Z,3.30
2018-01-12T00:55:19.261Z,3.30
2018-01-12T00:56:21.938Z,3.20
2018-01-12T00:57:24.606Z,3.20
2018-01-12T00:58:27.255Z,3.30
2018-01-12T00:59:30.517Z,3.20
2018-01-12T01:00:33.816Z,3.20
2018-01-12T01:01:36.337Z,3.20
2018-01-12T01:02:38.862Z,3.30
2018-01-12T01:03:42.132Z,3.20
2018-01-12T01:04:44.639Z,3.30
2018-01-12T01:05:47.141Z,3.30
2018-01-12T01:06:50.415Z,3.20
2018-01-12T01:07:52.950Z,3.20
2018-01-12T01:08:55.448Z,3.10
2018-01-12T01:09:57.950Z,3.20
2018-01-12T01:11:00.461Z,3.20
2018-01-12T01:12:02.999Z,3.20
2018-01-12T01:13:05.505Z,3.20
2018-01-12T01:14:08.000Z,3.20
2018-01-12T01:15:11.256Z,3.20
2018-01-12T01:16:13.756Z,3.20
2018-01-12T01:17:16.277Z,3.20
2018-01-12T01:18:18.803Z,3.10
2018-01-12T01:19:22.068Z,3.20
2018-01-12T01:20:24.568Z,3.10
2018-01-12T01:21:27.830Z,3.20
2018-01-12T01:22:30.344Z,3.20
2018-01-12T01:23:32.859Z,3.20
2018-01-12T01:24:35.343Z,3.20
2018-01-12T01:25:37.844Z,3.10
2018-01-12T01:26:40.346Z,3.10
2018-01-12T01:27:42.853Z,3.20
2018-01-12T01:28:45.362Z,3.20
2018-01-12T01:29:47.868Z,3.20
2018-01-12T01:30:50.377Z,3.20
2018-01-12T01:31:53.647Z,3.20
2018-01-12T01:32:56.151Z,3.20
2018-01-12T01:33:58.675Z,3.20
2018-01-12T01:35:01.174Z,3.30
2018-01-12T01:36:04.454Z,3.30
2018-01-12T01:37:06.964Z,3.30
2018-01-12T01:38:09.470Z,3.30
2018-01-12T01:39:11.976Z,3.40
2018-01-12T01:40:15.235Z,3.40
2018-01-12T01:41:17.734Z,3.40
2018-01-12T01:42:20.991Z,3.40
2018-01-12T01:43:23.481Z,3.40
2018-01-12T01:44:26.010Z,3.40
2018-01-12T01:45:28.508Z,3.40
2018-01-12T01:46:31.004Z,3.40
2018-01-12T01:47:34.277Z,3.40
2018-01-12T01:48:41.957Z,3.40
2018-01-12T01:49:44.471Z,3.40
2018-01-12T01:50:46.977Z,3.40
2018-01-12T01:51:49.472Z,3.40
2018-01-12T01:52:52.757Z,3.50
2018-01-12T01:53:55.248Z,3.50
2018-01-12T01:54:57.790Z,3.50
2018-01-12T01:56:00.301Z,3.50
2018-01-12T01:57:03.570Z,3.50
2018-01-12T01:58:06.065Z,3.50
2018-01-12T01:59:09.310Z,3.50
2018-01-12T02:00:11.841Z,3.50
2018-01-12T02:01:14.333Z,3.50
2018-01-12T02:02:16.843Z,3.50
2018-01-12T02:03:19.331Z,3.50
2018-01-12T02:04:22.619Z,3.40
2018-01-12T02:05:26.172Z,3.50
2018-01-12T02:06:28.673Z,3.50
2018-01-12T02:07:31.164Z,3.50
2018-01-12T02:08:34.438Z,3.50
2018-01-12T02:09:37.700Z,3.50
2018-01-12T02:10:40.216Z,3.50
2018-01-12T02:11:42.705Z,3.50
2018-01-12T02:12:45.200Z,3.40
2018-01-12T02:13:47.687Z,3.50
2018-01-12T02:14:50.180Z,3.50
2018-01-12T02:15:53.484Z,3.40
2018-01-12T02:16:55.995Z,3.40
2018-01-12T02:17:58.482Z,3.50
2018-01-12T02:19:00.991Z,3.40
2018-01-12T02:20:04.258Z,3.50
2018-01-12T02:21:07.544Z,3.50
2018-01-12T02:22:10.061Z,3.40
2018-01-12T02:23:12.578Z,3.40
2018-01-12T02:24:15.082Z,3.40
2018-01-12T02:25:17.575Z,3.40
2018-01-12T02:26:20.064Z,3.40
2018-01-12T02:27:22.550Z,3.40
2018-01-12T02:28:25.060Z,3.40
2018-01-12T02:29:27.552Z,3.40
2018-01-12T02:30:30.053Z,3.40
2018-01-12T02:31:32.556Z,3.50
2018-01-12T02:32:35.829Z,3.50
2018-01-12T02:33:38.325Z,3.40
2018-01-12T02:34:40.817Z,3.50
2018-01-12T02:35:43.319Z,3.50
2018-01-12T02:36:45.832Z,3.50
2018-01-12T02:37:49.121Z,3.40
2018-01-12T02:38:51.926Z,3.40
2018-01-12T02:39:55.522Z,3.40
2018-01-12T02:40:58.781Z,3.40
2018-01-12T02:42:02.079Z,3.40
2018-01-12T02:43:04.689Z,3.50
2018-01-12T02:44:07.201Z,3.50
2018-01-12T02:45:09.706Z,3.50
2018-01-12T02:46:13.363Z,3.50
2018-01-12T02:47:16.719Z,3.50
2018-01-12T02:48:19.247Z,3.50
2018-01-12T02:49:21.741Z,3.60
2018-01-12T02:50:25.000Z,3.60
2018-01-12T02:51:27.481Z,3.60
2018-01-12T02:52:30.701Z,3.60
2018-01-12T02:53:33.915Z,3.60
2018-01-12T02:54:36.424Z,3.60
2018-01-12T02:55:38.901Z,3.60
2018-01-12T02:56:41.380Z,3.70
2018-01-12T02:57:44.630Z,3.70
2018-01-12T02:58:47.096Z,3.70
2018-01-12T02:59:49.583Z,3.70
2018-01-12T03:00:52.077Z,3.70
2018-01-12T03:01:54.550Z,3.70
2018-01-12T03:02:57.805Z,3.70
2018-01-12T03:04:00.326Z,3.60
2018-01-12T03:05:02.852Z,3.70
2018-01-12T03:06:05.323Z,3.70
2018-01-12T03:07:07.809Z,3.70
2018-01-12T03:08:10.381Z,3.80
2018-01-12T03:09:12.858Z,3.80
2018-01-12T03:10:15.378Z,3.80
2018-01-12T03:11:17.869Z,3.70
2018-01-12T03:12:20.352Z,3.70
2018-01-12T03:13:22.840Z,3.80
2018-01-12T03:14:25.314Z,3.80
2018-01-12T03:15:28.799Z,3.80
2018-01-12T03:16:31.280Z,3.80
2018-01-12T03:17:34.527Z,3.90
2018-01-12T03:18:37.016Z,3.90
2018-01-12T03:19:39.514Z,3.90
2018-01-12T03:20:42.009Z,3.90
2018-01-12T03:21:44.502Z,3.90
2018-01-12T03:22:46.978Z,3.90
2018-01-12T03:23:49.477Z,3.90
2018-01-12T03:24:51.953Z,3.90
2018-01-12T03:25:55.198Z,3.90
2018-01-12T03:26:57.746Z,3.90
2018-01-12T03:28:00.239Z,3.90
2018-01-12T03:29:02.715Z,4.00
2018-01-12T03:30:05.202Z,4.00
2018-01-12T03:31:07.695Z,4.00
2018-01-12T03:32:11.097Z,4.00
2018-01-12T03:33:13.604Z,4.00
2018-01-12T03:34:16.084Z,4.00
2018-01-12T03:35:18.571Z,4.00
2018-01-12T03:36:21.067Z,4.00
2018-01-12T03:37:24.325Z,4.00
2018-01-12T03:38:26.811Z,4.00
2018-01-12T03:39:29.803Z,4.00
2018-01-12T03:40:32.291Z,4.00
2018-01-12T03:41:34.781Z,4.00
2018-01-12T03:42:37.278Z,4.00
2018-01-12T03:43:39.757Z,3.90
2018-01-12T03:44:42.245Z,3.90
2018-01-12T03:45:44.732Z,3.90
2018-01-12T03:46:47.974Z,3.90
2018-01-12T03:47:51.130Z,3.90
2018-01-12T03:48:53.627Z,4.00
2018-01-12T03:49:56.157Z,3.90
2018-01-12T03:50:59.404Z,3.80
2018-01-12T03:52:01.920Z,3.80
2018-01-12T03:53:04.405Z,3.90
2018-01-12T03:54:06.884Z,3.80
2018-01-12T03:55:09.370Z,3.80
2018-01-12T03:56:11.917Z,3.80
2018-01-12T03:57:14.414Z,3.80
2018-01-12T03:58:16.907Z,3.80
2018-01-12T03:59:19.381Z,3.80
2018-01-12T04:00:21.861Z,3.80
2018-01-12T04:01:24.342Z,3.90
2018-01-12T04:02:28.197Z,3.90
2018-01-12T04:03:30.677Z,3.90
2018-01-12T04:04:33.160Z,3.90
2018-01-12T04:05:36.465Z,3.90
2018-01-12T04:06:38.959Z,3.90
2018-01-12T04:07:41.454Z,3.90
2018-01-12T04:08:43.949Z,3.90
2018-01-12T04:09:46.439Z,3.90
2018-01-12T04:10:48.928Z,3.90
2018-01-12T04:11:51.430Z,3.90
2018-01-12T04:12:53.911Z,4.00
2018-01-12T04:13:56.385Z,4.00
2018-01-12T04:14:58.924Z,4.00
2018-01-12T04:16:01.404Z,4.00
2018-01-12T04:17:03.905Z,4.00
2018-01-12T04:18:06.421Z,4.00
2018-01-12T04:19:09.680Z,4.00
2018-01-12T04:20:12.177Z,4.00
2018-01-12T04:21:14.664Z,4.00
2018-01-12T04:22:17.905Z,4.00
2018-01-12T04:23:20.518Z,4.00
2018-01-12T04:24:24.264Z,4.00
2018-01-12T04:25:27.698Z,4.00
2018-01-12T04:26:30.192Z,4.00
2018-01-12T04:27:32.681Z,4.00
2018-01-12T04:28:35.179Z,4.10
2018-01-12T04:29:37.660Z,4.00
2018-01-12T04:30:40.516Z,4.00
2018-01-12T04:31:42.994Z,4.00
2018-01-12T04:32:45.470Z,4.00
2018-01-12T04:33:48.844Z,4.00
2018-01-12T04:34:51.333Z,4.00
2018-01-12T04:35:53.829Z,4.00
2018-01-12T04:36:56.305Z,3.90
2018-01-12T04:37:59.549Z,4.00
2018-01-12T04:39:02.044Z,4.00
2018-01-12T04:40:04.557Z,3.90
2018-01-12T04:41:07.044Z,3.90
2018-01-12T04:42:09.538Z,3.90
2018-01-12T04:43:12.014Z,3.90
2018-01-12T04:44:14.506Z,3.90
2018-01-12T04:45:17.462Z,3.90
2018-01-12T04:46:19.967Z,3.90
2018-01-12T04:47:22.457Z,3.90
2018-01-12T04:48:24.937Z,3.90
2018-01-12T04:49:27.426Z,3.90
2018-01-12T04:50:29.935Z,3.90
2018-01-12T04:51:32.434Z,3.90
2018-01-12T04:52:35.689Z,3.90
2018-01-12T04:53:38.183Z,3.90
2018-01-12T04:54:41.438Z,3.80
2018-01-12T04:55:43.918Z,3.80
2018-01-12T04:56:47.276Z,3.80
2018-01-12T04:57:49.764Z,3.80
2018-01-12T04:58:52.253Z,3.80
2018-01-12T04:59:54.729Z,3.80
2018-01-12T05:00:58.001Z,3.80
2018-01-12T05:02:00.512Z,3.80
2018-01-12T05:03:03.786Z,3.80
2018-01-12T05:04:06.272Z,3.90
2018-01-12T05:05:08.775Z,3.90
2018-01-12T05:06:11.276Z,3.80
2018-01-12T05:07:13.821Z,3.90
2018-01-12T05:21:16.386Z,3.90
2018-01-12T05:22:18.911Z,4.00
2018-01-12T05:23:21.402Z,4.00
2018-01-12T05:24:23.911Z,4.00
2018-01-12T05:25:26.405Z,4.00
2018-01-12T05:26:29.675Z,4.00
2018-01-12T05:27:32.171Z,3.90
2018-01-12T05:28:35.429Z,3.90
2018-01-12T05:29:37.930Z,3.90
2018-01-12T05:30:41.197Z,3.90
2018-01-12T05:31:43.704Z,3.90
2018-01-12T05:32:46.198Z,4.00
2018-01-12T05:33:48.689Z,3.90
2018-01-12T05:34:51.192Z,3.90
2018-01-12T05:35:54.445Z,3.80
2018-01-12T05:36:57.725Z,3.80
2018-01-12T05:38:00.226Z,3.80
2018-01-12T05:39:02.716Z,3.80
2018-01-12T05:40:05.215Z,3.80
2018-01-12T05:41:07.737Z,3.90
2018-01-12T05:42:11.003Z,3.90
2018-01-12T05:43:13.502Z,3.90
2018-01-12T05:44:16.784Z,3.90
2018-01-12T05:45:20.227Z,3.90
2018-01-12T05:46:22.726Z,3.90
2018-01-12T05:47:25.222Z,3.90
2018-01-12T05:48:28.480Z,3.90
2018-01-12T05:49:31.644Z,3.90
2018-01-12T05:50:34.162Z,3.90
2018-01-12T05:51:36.655Z,3.90
2018-01-12T05:52:39.169Z,3.90
2018-01-12T05:53:41.679Z,3.90
2018-01-12T05:54:44.943Z,4.00
2018-01-12T05:55:47.470Z,3.90
2018-01-12T05:56:49.987Z,3.90
2018-01-12T05:57:52.518Z,3.90
2018-01-12T05:58:55.004Z,4.00
2018-01-12T05:59:57.503Z,3.90
2018-01-12T06:01:11.900Z,4.00
2018-01-12T06:02:26.344Z,3.90
2018-01-12T06:03:40.698Z,3.90
2018-01-12T06:04:55.058Z,3.80
2018-01-12T06:06:19.279Z,3.80
2018-01-12T06:07:23.286Z,3.80
2018-01-12T06:08:25.794Z,3.90
2018-01-12T06:09:28.286Z,3.90
2018-01-12T06:10:30.783Z,3.90
2018-01-12T06:11:33.288Z,3.80
2018-01-12T06:12:37.018Z,3.80
2018-01-12T06:13:39.547Z,3.80
2018-01-12T06:14:42.821Z,3.80
2018-01-12T06:15:45.318Z,3.80
2018-01-12T06:16:48.576Z,3.80
2018-01-12T06:17:51.072Z,3.80
2018-01-12T06:18:54.347Z,3.80
2018-01-12T06:19:56.842Z,3.80
2018-01-12T06:20:59.331Z,3.80
2018-01-12T06:22:01.834Z,3.80
2018-01-12T06:23:04.321Z,3.80
2018-01-12T06:24:06.847Z,3.90
2018-01-12T06:25:09.344Z,3.90
2018-01-12T06:26:11.847Z,3.90
2018-01-12T06:27:15.126Z,4.00
2018-01-12T06:28:17.645Z,4.00
2018-01-12T06:29:20.931Z,4.00
2018-01-12T06:30:23.430Z,4.00
2018-01-12T06:31:29.758Z,4.00
2018-01-12T06:32:32.311Z,4.00
2018-01-12T06:33:35.578Z,4.00
2018-01-12T06:34:38.072Z,4.00
2018-01-12T06:35:41.345Z,4.10
2018-01-12T06:36:43.848Z,4.10
2018-01-12T06:37:46.355Z,4.10
2018-01-12T06:38:48.862Z,4.10
2018-01-12T06:39:51.377Z,4.20
2018-01-12T06:40:53.887Z,4.20
2018-01-12T06:41:56.393Z,4.20
2018-01-12T06:42:58.888Z,4.20
2018-01-12T06:44:01.410Z,4.20
2018-01-12T06:45:03.917Z,4.20
2018-01-12T06:46:06.413Z,4.20
2018-01-12T06:47:08.912Z,4.20
2018-01-12T06:48:11.421Z,4.10
2018-01-12T06:49:13.947Z,4.10
2018-01-12T06:50:16.467Z,4.10
2018-01-12T06:51:18.980Z,4.10
2018-01-12T06:52:22.242Z,4.10
2018-01-12T06:53:24.738Z,4.10
2018-01-12T06:54:27.258Z,4.10
2018-01-12T06:55:29.752Z,4.00
2018-01-12T06:56:32.255Z,4.10
2018-01-12T06:57:34.751Z,4.00
2018-01-12T06:58:38.010Z,4.00
2018-01-12T06:59:40.513Z,4.00
2018-01-12T07:00:43.815Z,4.00
2018-01-12T07:01:46.356Z,4.00
2018-01-12T07:02:48.855Z,4.00
2018-01-12T07:03:51.354Z,4.10
2018-01-12T07:04:53.844Z,4.10
2018-01-12T07:05:56.419Z,4.00
2018-01-12T07:06:59.041Z,4.00
2018-01-12T07:08:01.553Z,4.00
2018-01-12T07:09:04.085Z,4.00
2018-01-12T07:10:06.616Z,4.00
2018-01-12T07:11:09.121Z,4.00
2018-01-12T07:12:11.626Z,4.00
2018-01-12T07:13:14.150Z,4.00
2018-01-12T07:14:17.431Z,3.90
2018-01-12T07:15:20.691Z,3.90
2018-01-12T07:16:23.190Z,3.90
2018-01-12T07:17:26.467Z,3.90
2018-01-12T07:18:28.967Z,3.90
2018-01-12T07:19:31.455Z,3.90
2018-01-12T07:20:45.826Z,3.90
2018-01-12T07:22:00.182Z,3.90
2018-01-12T07:23:14.730Z,3.90
2018-01-12T07:24:17.232Z,3.90
2018-01-12T07:25:19.730Z,3.90
2018-01-12T07:26:22.220Z,3.90
2018-01-12T07:27:24.709Z,3.90
2018-01-12T07:28:27.223Z,3.90
2018-01-12T07:29:30.498Z,3.90
2018-01-12T07:30:33.820Z,3.90
2018-01-12T07:31:42.398Z,3.90
2018-01-12T07:32:48.334Z,3.90
2018-01-12T07:33:51.973Z,3.90
2018-01-12T07:34:54.596Z,3.90
2018-01-12T07:35:57.121Z,3.80
2018-01-12T07:36:59.604Z,3.80
2018-01-12T07:38:02.334Z,3.80
2018-01-12T07:39:05.645Z,3.70
2018-01-12T07:40:08.890Z,3.80
2018-01-12T07:41:11.382Z,3.80
2018-01-12T07:42:13.863Z,3.80
2018-01-12T07:43:17.148Z,3.80
2018-01-12T07:44:20.437Z,3.80
2018-01-12T07:45:23.709Z,3.90
2018-01-12T07:46:26.281Z,3.80
2018-01-12T07:47:28.778Z,3.90
2018-01-12T07:48:31.266Z,3.90
2018-01-12T07:49:33.780Z,3.90
2018-01-12T07:50:36.283Z,3.90
2018-01-12T07:51:39.534Z,3.90
2018-01-12T07:52:48.619Z,3.90
2018-01-12T07:53:51.181Z,4.00
2018-01-12T07:54:53.674Z,4.00
2018-01-12T07:55:56.168Z,4.00
2018-01-12T07:56:59.436Z,4.00
2018-01-12T07:58:02.006Z,4.00
2018-01-12T07:59:04.537Z,4.00
2018-01-12T08:00:07.803Z,4.10
2018-01-12T08:01:16.689Z,4.10
2018-01-12T08:02:25.019Z,4.10
2018-01-12T08:03:27.537Z,4.10
2018-01-12T08:04:30.035Z,4.10
2018-01-12T08:05:32.552Z,4.10
2018-01-12T08:06:35.811Z,4.10
2018-01-12T08:07:38.297Z,4.00
2018-01-12T08:08:40.816Z,4.10
2018-01-12T08:09:43.383Z,4.10
2018-01-12T08:10:45.893Z,4.10
2018-01-12T08:11:48.398Z,4.20
2018-01-12T08:12:51.703Z,4.10
2018-01-12T08:13:54.964Z,4.00
2018-01-12T08:14:58.283Z,4.20
2018-01-12T08:16:00.772Z,4.20
2018-01-12T08:17:03.269Z,4.20
2018-01-12T08:18:05.772Z,4.20
2018-01-12T08:19:09.031Z,4.20
2018-01-12T08:20:11.534Z,4.20
2018-01-12T08:21:14.816Z,4.20
2018-01-12T08:22:18.100Z,4.20
2018-01-12T08:23:20.582Z,4.20
2018-01-12T08:24:23.916Z,4.30
2018-01-12T08:25:26.559Z,4.30
2018-01-12T08:26:29.131Z,4.30
2018-01-12T08:27:31.653Z,4.30
2018-01-12T08:28:34.175Z,4.30
2018-01-12T08:29:36.695Z,4.30
2018-01-12T08:30:39.197Z,4.20
2018-01-12T08:31:42.464Z,4.20
2018-01-12T08:32:44.978Z,4.20
2018-01-12T08:33:47.502Z,4.20
2018-01-12T08:34:49.988Z,4.20
2018-01-12T08:35:53.247Z,4.20
2018-01-12T08:36:55.757Z,4.20
2018-01-12T08:37:59.047Z,4.20
2018-01-12T08:39:02.325Z,4.30
2018-01-12T08:40:05.586Z,4.30
2018-01-12T08:41:08.109Z,4.30
2018-01-12T08:42:10.598Z,4.40
2018-01-12T08:43:13.121Z,4.40
2018-01-12T08:44:16.451Z,4.40
2018-01-12T08:45:19.701Z,4.40
2018-01-12T08:46:23.004Z,4.40
2018-01-12T08:47:25.514Z,4.40
2018-01-12T08:48:28.015Z,4.40
2018-01-12T08:49:30.620Z,4.40
2018-01-12T08:50:33.120Z,4.40
2018-01-12T08:51:35.605Z,4.40
2018-01-12T08:52:38.089Z,4.50
2018-01-12T08:53:40.593Z,4.50
2018-01-12T08:54:43.852Z,4.50
2018-01-12T08:55:46.350Z,4.50
2018-01-12T08:56:49.609Z,4.50
2018-01-12T08:57:52.090Z,4.50
2018-01-12T08:58:54.597Z,4.40
2018-01-12T08:59:57.110Z,4.50
2018-01-12T09:00:59.611Z,4.50
2018-01-12T09:02:02.869Z,4.50
2018-01-12T09:03:05.364Z,4.50
2018-01-12T09:04:08.647Z,4.50
2018-01-12T09:05:11.911Z,4.60
2018-01-12T09:06:14.401Z,4.60
2018-01-12T09:07:16.903Z,4.60
2018-01-12T09:08:19.406Z,4.60
2018-01-12T09:09:21.922Z,4.60
2018-01-12T09:10:25.185Z,4.60
2018-01-12T09:11:28.439Z,4.60
2018-01-12T09:12:30.952Z,4.60
2018-01-12T09:13:45.378Z,4.70
2018-01-12T09:14:56.678Z,4.80
2018-01-12T09:16:06.089Z,4.80
2018-01-12T09:17:08.602Z,4.80
2018-01-12T09:18:23.812Z,4.80
2018-01-12T09:19:40.176Z,4.80
2018-01-12T09:20:43.451Z,4.80
2018-01-12T09:21:45.983Z,4.80
2018-01-12T09:22:48.486Z,4.80
2018-01-12T09:23:56.052Z,4.80
2018-01-12T09:24:58.543Z,4.80
2018-01-12T09:26:01.145Z,4.90
2018-01-12T09:27:03.647Z,4.90
2018-01-12T09:28:06.146Z,4.90
2018-01-12T09:29:08.650Z,4.90
2018-01-12T09:30:11.154Z,4.90
2018-01-12T09:31:13.658Z,4.90
2018-01-12T09:32:17.083Z,4.90
2018-01-12T09:33:19.599Z,4.90
2018-01-12T09:34:34.170Z,4.90
2018-01-12T09:35:36.674Z,5.00
2018-01-12T09:36:39.949Z,5.00
2018-01-12T09:37:42.473Z,5.00
2018-01-12T09:38:51.767Z,5.10
2018-01-12T09:40:06.066Z,5.10
2018-01-12T09:41:08.622Z,5.20
2018-01-12T09:42:11.237Z,5.10
2018-01-12T09:43:13.740Z,5.10
2018-01-12T09:44:16.263Z,5.00
2018-01-12T09:45:18.905Z,5.00
2018-01-12T09:46:21.416Z,5.00
2018-01-12T09:47:24.691Z,5.10
2018-01-12T09:48:27.210Z,5.10
2018-01-12T09:49:29.718Z,5.10
2018-01-12T09:50:32.218Z,5.10
2018-01-12T09:51:35.497Z,5.00
2018-01-12T09:52:38.002Z,5.00
2018-01-12T09:53:40.501Z,5.10
2018-01-12T09:54:43.010Z,5.00
2018-01-12T09:55:45.515Z,5.00
2018-01-12T09:56:48.013Z,5.00
2018-01-12T09:57:50.517Z,5.00
2018-01-12T09:58:53.125Z,5.00
2018-01-12T09:59:58.607Z,5.00
2018-01-12T10:01:02.971Z,5.00
2018-01-12T10:02:06.251Z,5.10
2018-01-12T10:03:09.533Z,5.10
2018-01-12T10:04:12.032Z,5.00
2018-01-12T10:05:14.554Z,5.10
2018-01-12T10:06:17.032Z,5.10
2018-01-12T10:07:19.583Z,5.10
2018-01-12T10:08:25.843Z,5.10
2018-01-12T10:09:30.262Z,5.10
2018-01-12T10:10:32.780Z,5.10
2018-01-12T10:11:36.041Z,4.90
2018-01-12T10:12:38.553Z,4.90
2018-01-12T10:13:41.064Z,4.90
2018-01-12T10:14:43.573Z,5.00
2018-01-12T10:15:46.860Z,5.10
2018-01-12T10:16:49.358Z,5.10
2018-01-12T10:17:56.427Z,5.20
2018-01-12T10:18:59.750Z,5.30
2018-01-12T10:20:17.121Z,5.30
2018-01-12T10:21:31.485Z,5.30
2018-01-12T10:22:33.986Z,5.30
2018-01-12T10:23:36.491Z,5.30
2018-01-12T10:24:38.977Z,5.30
2018-01-12T10:25:41.479Z,5.40
2018-01-12T10:26:44.749Z,5.40
2018-01-12T10:27:47.269Z,5.30
2018-01-12T10:29:01.590Z,5.30
2018-01-12T10:30:16.752Z,5.20
2018-01-12T10:31:19.267Z,5.20
2018-01-12T10:32:25.565Z,5.10
2018-01-12T10:35:18.956Z,5.10
2018-01-12T10:36:21.471Z,5.10
2018-01-12T10:37:23.964Z,5.00
2018-01-12T10:38:26.462Z,5.00
2018-01-12T10:39:28.984Z,5.00
2018-01-12T10:40:53.198Z,5.00
2018-01-12T10:42:02.614Z,5.00
2018-01-12T10:43:05.128Z,5.00
2018-01-12T10:44:07.672Z,5.00
2018-01-12T10:45:10.184Z,5.10
2018-01-12T10:46:36.187Z,5.10
2018-01-12T10:47:47.590Z,5.10
2018-01-12T10:48:57.315Z,5.20
2018-01-12T10:50:28.253Z,5.20
2018-01-12T10:51:38.416Z,5.20
2018-01-12T10:52:47.719Z,5.20
2018-01-12T10:53:50.244Z,5.30
2018-01-12T10:54:52.736Z,5.30
2018-01-12T10:55:55.269Z,5.30
2018-01-12T10:56:57.751Z,5.30
2018-01-12T10:58:00.282Z,5.40
2018-01-12T10:59:02.802Z,5.50
2018-01-12T11:00:05.332Z,5.40
2018-01-12T11:01:09.345Z,5.60
2018-01-12T11:02:12.647Z,5.50
2018-01-12T11:03:15.156Z,5.50
2018-01-12T11:04:17.650Z,5.50
2018-01-12T11:05:20.146Z,5.50
2018-01-12T11:06:23.425Z,5.50
2018-01-12T11:07:26.693Z,5.50
2018-01-12T11:08:29.195Z,5.50
2018-01-12T11:09:32.465Z,5.40
2018-01-12T11:10:35.738Z,5.30
2018-01-12T11:11:39.767Z,5.30
2018-01-12T11:12:43.053Z,5.30
2018-01-12T11:13:46.364Z,5.30
2018-01-12T11:15:58.553Z,5.20
2018-01-12T11:17:01.822Z,5.20
2018-01-12T11:18:04.432Z,5.10
2018-01-12T11:19:07.803Z,5.10
2018-01-12T11:20:10.428Z,5.10
2018-01-12T11:21:12.958Z,5.10
2018-01-12T11:22:16.222Z,5.10
2018-01-12T11:23:18.747Z,5.00
2018-01-12T11:24:21.259Z,5.10
2018-01-12T11:25:23.797Z,5.20
2018-01-12T11:26:26.293Z,5.20
2018-01-12T11:27:28.777Z,5.20
2018-01-12T11:28:31.295Z,5.20
2018-01-12T11:29:33.800Z,5.20
2018-01-12T11:30:36.300Z,5.10
2018-01-12T11:31:39.585Z,5.20
2018-01-12T11:32:42.087Z,5.20
2018-01-12T11:33:45.504Z,5.30
2018-01-12T11:34:48.004Z,5.30
2018-01-12T11:35:50.540Z,5.20
2018-01-12T11:36:53.054Z,5.20
2018-01-12T11:37:55.579Z,5.20
2018-01-12T11:38:58.067Z,5.20
2018-01-12T11:40:00.567Z,5.30
2018-01-12T11:41:03.827Z,5.30
2018-01-12T11:42:06.367Z,5.30
2018-01-12T11:43:08.936Z,5.40
2018-01-12T11:44:11.438Z,5.50
2018-01-12T11:45:14.188Z,5.50
2018-01-12T11:46:16.685Z,5.50
2018-01-12T11:47:19.252Z,5.50
2018-01-12T11:48:21.750Z,5.60
2018-01-12T11:49:24.323Z,5.70
2018-01-12T11:50:26.851Z,5.70
2018-01-12T11:51:30.121Z,5.80
2018-01-12T11:52:33.412Z,5.80
2018-01-12T11:53:35.973Z,5.80
2018-01-12T11:54:39.240Z,5.80
2018-01-12T11:55:41.871Z,5.70
2018-01-12T11:56:44.407Z,5.80
2018-01-12T11:57:47.721Z,5.80
2018-01-12T11:58:50.244Z,5.80
2018-01-12T11:59:52.754Z,5.80
2018-01-12T12:00:55.276Z,5.80
2018-01-12T12:01:57.794Z,5.90
2018-01-12T12:03:00.317Z,5.90
2018-01-12T12:04:02.939Z,5.90
2018-01-12T12:05:05.475Z,5.90
2018-01-12T12:06:08.732Z,6.00
2018-01-12T12:07:11.229Z,6.00
2018-01-12T12:08:13.834Z,5.90
2018-01-12T12:09:16.335Z,6.00
2018-01-12T12:10:18.841Z,6.00
2018-01-12T12:11:22.188Z,6.00
2018-01-12T12:12:25.718Z,6.00
2018-01-12T12:13:28.296Z,6.00
2018-01-12T12:14:30.853Z,6.00
2018-01-12T12:15:33.406Z,6.00
2018-01-12T12:16:35.915Z,6.00
2018-01-12T12:17:38.444Z,6.00
2018-01-12T12:18:40.963Z,6.00
2018-01-12T12:19:43.480Z,6.00
2018-01-12T12:20:46.011Z,6.00
2018-01-12T12:21:48.522Z,6.00
2018-01-12T12:22:51.041Z,6.00
2018-01-12T12:23:53.579Z,6.10
2018-01-12T12:24:56.846Z,6.10
2018-01-12T12:25:59.368Z,6.10
2018-01-12T12:27:01.885Z,6.10
2018-01-12T12:28:04.402Z,6.10
2018-01-12T12:29:06.898Z,6.00
2018-01-12T12:30:09.424Z,6.00
2018-01-12T12:31:12.726Z,6.00
2018-01-12T12:32:16.127Z,6.00
2018-01-12T12:33:18.711Z,6.00
2018-01-12T12:34:21.226Z,6.00
2018-01-12T12:35:23.751Z,6.00
2018-01-12T12:36:26.320Z,6.00
2018-01-12T12:37:28.877Z,5.90
2018-01-12T12:38:31.425Z,5.90
2018-01-12T12:39:34.722Z,5.80
2018-01-12T12:40:38.013Z,5.90
2018-01-12T12:41:41.310Z,5.90
2018-01-12T12:42:44.795Z,6.00
2018-01-12T12:43:48.067Z,6.00
2018-01-12T12:44:51.363Z,6.00
2018-01-12T12:45:53.881Z,6.00
2018-01-12T12:46:56.420Z,6.10
2018-01-12T12:47:59.684Z,6.10
2018-01-12T12:49:02.968Z,6.20
2018-01-12T12:50:05.482Z,6.10
2018-01-12T12:51:08.019Z,6.20
2018-01-12T12:52:10.565Z,6.20
2018-01-12T12:53:13.109Z,6.20
2018-01-12T12:54:15.652Z,6.30
2018-01-12T12:55:18.968Z,6.30
2018-01-12T12:56:21.493Z,6.30
2018-01-12T12:57:24.024Z,6.40
2018-01-12T12:58:26.541Z,6.30
2018-01-12T12:59:29.060Z,6.20
2018-01-12T13:00:31.620Z,6.30
2018-01-12T13:01:34.132Z,6.30
2018-01-12T13:02:36.694Z,6.30
2018-01-12T13:03:39.424Z,6.30
2018-01-12T13:04:42.713Z,6.30
2018-01-12T13:05:46.013Z,6.40
2018-01-12T13:06:48.627Z,6.40
2018-01-12T13:07:51.169Z,6.40
2018-01-12T13:08:53.701Z,6.30
2018-01-12T13:09:56.258Z,6.30
2018-01-12T13:10:59.526Z,6.20
2018-01-12T13:12:03.064Z,6.10
2018-01-12T13:13:05.599Z,6.10
2018-01-12T13:14:08.867Z,6.10
2018-01-12T13:15:11.358Z,6.00
2018-01-12T13:16:14.626Z,6.00
2018-01-12T13:17:17.248Z,6.00
2018-01-12T13:18:19.757Z,6.00
2018-01-12T13:19:22.295Z,6.10
2018-01-12T13:20:24.820Z,6.00
2018-01-12T13:21:27.354Z,6.00
2018-01-12T13:22:29.871Z,5.90
2018-01-12T13:23:33.289Z,6.00
2018-01-12T13:24:35.810Z,6.00
2018-01-12T13:25:38.314Z,5.90
2018-01-12T13:26:41.589Z,5.90
2018-01-12T13:27:45.703Z,6.00
2018-01-12T13:28:49.052Z,6.00
2018-01-12T13:29:51.562Z,6.00
2018-01-12T13:30:54.824Z,6.00
2018-01-12T13:31:57.386Z,6.00
2018-01-12T13:32:59.872Z,6.00
2018-01-12T13:34:03.884Z,5.90
2018-01-12T13:35:06.425Z,5.90
2018-01-12T13:36:08.936Z,5.90
2018-01-12T13:37:12.207Z,6.00
2018-01-12T13:38:15.484Z,6.00
2018-01-12T13:39:18.009Z,6.00
2018-01-12T13:40:20.556Z,6.00
2018-01-12T13:41:23.081Z,5.90
2018-01-12T13:42:25.587Z,5.90
2018-01-12T13:43:28.855Z,5.80
2018-01-12T13:44:31.378Z,5.80
2018-01-12T13:45:33.883Z,5.80
2018-01-12T13:46:36.411Z,5.80
2018-01-12T13:47:39.048Z,5.80
2018-01-12T13:48:41.561Z,5.80
2018-01-12T13:49:44.118Z,5.80
2018-01-12T13:50:47.375Z,5.70
2018-01-12T13:51:49.986Z,5.70
2018-01-12T13:52:52.762Z,5.60
2018-01-12T13:53:55.333Z,5.60
2018-01-12T13:54:57.928Z,5.60
2018-01-12T13:56:00.413Z,5.60
2018-01-12T13:57:02.916Z,5.60
2018-01-12T13:58:06.919Z,5.60
2018-01-12T13:59:09.420Z,5.60
2018-01-12T14:00:12.705Z,5.50
2018-01-12T14:01:16.028Z,5.40
2018-01-12T14:02:18.571Z,5.40
2018-01-12T14:03:21.831Z,5.40
2018-01-12T14:04:25.101Z,5.40
2018-01-12T14:05:27.617Z,5.40
2018-01-12T14:06:30.151Z,5.40
2018-01-12T14:07:32.645Z,5.40
2018-01-12T14:08:35.948Z,5.40
2018-01-12T14:09:39.232Z,5.40
2018-01-12T14:10:41.747Z,5.40
2018-01-12T14:11:44.321Z,5.30
2018-01-12T14:12:46.850Z,5.40
2018-01-12T14:13:49.385Z,5.40
2018-01-12T14:14:52.669Z,5.30
2018-01-12T14:15:56.675Z,5.30
2018-01-12T14:16:59.282Z,5.30
2018-01-12T14:18:01.804Z,5.40
2018-01-12T14:19:04.311Z,5.30